createdAt,value
2018-01-29T00:01:40.307Z,101162.23
2018-01-29T00:04:07.771Z,101150.05
2018-01-29T00:06:35.241Z,101160.16
2018-01-29T00:09:02.863Z,101159.36
2018-01-29T00:11:30.288Z,101145.92
2018-01-29T00:13:57.754Z,101136.83
2018-01-29T00:16:25.197Z,101152.77
2018-01-29T00:18:52.693Z,101150.50
2018-01-29T00:21:20.162Z,101157.30
2018-01-29T00:23:47.726Z,101156.20
2018-01-29T00:26:15.193Z,101155.66
2018-01-29T00:28:42.652Z,101151.80
2018-01-29T00:31:10.136Z,101145.52
2018-01-29T00:33:37.618Z,101154.11
2018-01-29T00:36:05.099Z,101162.45
2018-01-29T00:38:32.553Z,101156.03
2018-01-29T00:41:00.026Z,101158.92
2018-01-29T00:43:27.473Z,101156.45
2018-01-29T00:45:54.962Z,101150.85
2018-01-29T00:48:22.418Z,101148.74
2018-01-29T00:50:49.868Z,101154.06
2018-01-29T00:53:17.316Z,101162.77
2018-01-29T00:55:44.841Z,101158.69
2018-01-29T00:58:12.325Z,101151.22
2018-01-29T01:00:39.884Z,101150.19
2018-01-29T01:03:07.333Z,101157.62
2018-01-29T01:05:34.828Z,101152.23
2018-01-29T01:08:02.288Z,101168.13
2018-01-29T01:10:29.727Z,101166.28
2018-01-29T01:12:57.251Z,101172.57
2018-01-29T01:15:24.705Z,101150.41
2018-01-29T01:17:52.166Z,101155.20
2018-01-29T01:20:19.707Z,101162.59
2018-01-29T01:22:47.180Z,101153.35
2018-01-29T01:25:14.625Z,101156.43
2018-01-29T01:27:42.082Z,101156.83
2018-01-29T01:30:09.558Z,101149.81
2018-01-29T01:32:37.056Z,101165.08
2018-01-29T01:35:04.498Z,101140.98
2018-01-29T01:37:31.946Z,101144.09
2018-01-29T01:39:59.395Z,101147.27
2018-01-29T01:42:26.845Z,101139.37
2018-01-29T01:44:54.371Z,101128.98
2018-01-29T01:47:21.826Z,101134.87
2018-01-29T01:49:49.280Z,101126.30
2018-01-29T01:52:16.734Z,101143.74
2018-01-29T01:54:44.201Z,101131.98
2018-01-29T01:57:11.723Z,101126.97
2018-01-29T01:59:39.196Z,101121.05
2018-01-29T02:02:07.076Z,101141.30
2018-01-29T02:04:34.535Z,101117.98
2018-01-29T02:07:02.012Z,101124.27
2018-01-29T02:09:29.465Z,101124.59
2018-01-29T02:11:56.920Z,101123.70
2018-01-29T02:14:24.381Z,101116.64
2018-01-29T02:16:51.845Z,101119.23
2018-01-29T02:19:19.369Z,101121.59
2018-01-29T02:21:46.933Z,101122.05
2018-01-29T02:24:14.390Z,101119.67
2018-01-29T02:26:41.875Z,101118.63
2018-01-29T02:29:09.325Z,101110.72
2018-01-29T02:31:36.875Z,101115.65
2018-01-29T02:34:04.339Z,101108.66
2018-01-29T02:36:31.781Z,101112.75
2018-01-29T02:38:59.244Z,101106.25
2018-01-29T02:41:26.710Z,101106.86
2018-01-29T02:43:54.165Z,101104.62
2018-01-29T02:46:21.631Z,101111.47
2018-01-29T02:48:49.126Z,101102.66
2018-01-29T02:51:16.568Z,101104.89
2018-01-29T02:53:44.036Z,101104.00
2018-01-29T02:56:11.485Z,101100.67
2018-01-29T02:58:38.953Z,101104.69
2018-01-29T03:01:06.494Z,101109.53
2018-01-29T03:03:33.969Z,101095.45
2018-01-29T03:06:01.486Z,101100.77
2018-01-29T03:08:28.988Z,101088.33
2018-01-29T03:10:56.453Z,101082.38
2018-01-29T03:13:23.952Z,101077.00
2018-01-29T03:15:51.489Z,101078.91
2018-01-29T03:18:18.961Z,101071.30
2018-01-29T03:20:46.420Z,101069.86
2018-01-29T03:23:13.872Z,101073.58
2018-01-29T03:25:41.332Z,101067.66
2018-01-29T03:28:08.784Z,101074.55
2018-01-29T03:30:36.256Z,101069.43
2018-01-29T03:33:03.789Z,101071.47
2018-01-29T03:35:31.358Z,101061.77
2018-01-29T03:37:58.807Z,101063.63
2018-01-29T03:40:26.277Z,101044.08
2018-01-29T03:42:53.773Z,101063.44
2018-01-29T03:45:21.240Z,101065.28
2018-01-29T03:47:48.709Z,101072.80
2018-01-29T03:50:16.174Z,101058.88
2018-01-29T03:52:43.660Z,101060.48
2018-01-29T03:55:11.127Z,101061.88
2018-01-29T03:57:38.852Z,101072.64
2018-01-29T04:00:06.376Z,101057.67
2018-01-29T04:02:33.840Z,101063.44
2018-01-29T04:05:01.310Z,101056.09
2018-01-29T04:07:28.773Z,101063.48
2018-01-29T04:09:56.253Z,101064.20
2018-01-29T04:12:23.832Z,101055.88
2018-01-29T04:14:51.310Z,101053.78
2018-01-29T04:17:18.885Z,101063.32
2018-01-29T04:19:46.441Z,101051.25
2018-01-29T04:22:13.894Z,101043.48
2018-01-29T04:24:41.365Z,101030.97
2018-01-29T04:27:08.862Z,101041.19
2018-01-29T04:29:36.428Z,101043.06
2018-01-29T04:32:03.877Z,101040.87
2018-01-29T04:34:31.332Z,101032.02
2018-01-29T04:36:58.849Z,101037.70
2018-01-29T04:39:26.322Z,101029.03
2018-01-29T04:41:53.765Z,101026.84
2018-01-29T04:44:21.995Z,101022.16
2018-01-29T04:46:49.441Z,101017.76
2018-01-29T04:49:16.912Z,101021.22
2018-01-29T04:51:44.367Z,101019.87
2018-01-29T04:54:11.889Z,101015.96
2018-01-29T04:56:39.430Z,101017.36
2018-01-29T04:59:06.895Z,101013.47
2018-01-29T05:01:34.369Z,101008.45
2018-01-29T05:04:01.924Z,101014.98
2018-01-29T05:06:29.415Z,101016.23
2018-01-29T05:08:56.986Z,101004.19
2018-01-29T05:11:24.469Z,101015.19
2018-01-29T05:13:52.017Z,101010.14
2018-01-29T05:16:19.492Z,101009.02
2018-01-29T05:18:46.992Z,100989.72
2018-01-29T05:21:14.803Z,100999.00
2018-01-29T05:23:42.338Z,100999.56
2018-01-29T05:26:09.901Z,100996.34
2018-01-29T05:28:37.467Z,100987.91
2018-01-29T05:31:05.025Z,100999.42
2018-01-29T05:33:32.559Z,100993.03
2018-01-29T05:36:05.611Z,100989.27
2018-01-29T05:38:33.126Z,100976.84
2018-01-29T05:41:00.644Z,100983.88
2018-01-29T05:43:28.109Z,100990.26
2018-01-29T05:45:55.549Z,100989.70
2018-01-29T05:48:23.034Z,100979.79
2018-01-29T05:50:50.494Z,100992.36
2018-01-29T05:53:18.013Z,100981.02
2018-01-29T05:55:45.481Z,100978.03
2018-01-29T05:58:12.940Z,100973.77
2018-01-29T06:00:40.417Z,100970.08
2018-01-29T06:03:07.906Z,100973.40
2018-01-29T06:05:35.393Z,100972.20
2018-01-29T06:08:02.845Z,100970.88
2018-01-29T06:10:30.322Z,100972.45
2018-01-29T06:12:57.768Z,100973.88
2018-01-29T06:15:25.333Z,100975.13
2018-01-29T06:17:52.812Z,100979.38
2018-01-29T06:20:20.268Z,100974.68
2018-01-29T06:22:47.729Z,100978.98
2018-01-29T06:25:15.421Z,100978.19
2018-01-29T06:27:42.898Z,100986.23
2018-01-29T06:30:10.481Z,100978.23
2018-01-29T06:32:37.925Z,100984.47
2018-01-29T06:35:05.522Z,100981.49
2018-01-29T06:37:33.016Z,100986.07
2018-01-29T06:40:00.565Z,100981.73
2018-01-29T06:42:28.013Z,100976.30
2018-01-29T06:44:55.459Z,100973.00
2018-01-29T06:47:22.966Z,100958.77
2018-01-29T06:49:50.426Z,100958.31
2018-01-29T06:52:17.904Z,100957.67
2018-01-29T06:54:45.385Z,100965.59
2018-01-29T06:57:12.846Z,100963.98
2018-01-29T06:59:40.314Z,100952.78
2018-01-29T07:02:07.834Z,100961.18
2018-01-29T07:04:35.364Z,100956.48
2018-01-29T07:07:02.886Z,100960.91
2018-01-29T07:09:30.401Z,100945.34
2018-01-29T07:11:57.877Z,100956.54
2018-01-29T07:14:25.352Z,100948.64
2018-01-29T07:16:52.821Z,100952.92
2018-01-29T07:19:20.296Z,100950.80
2018-01-29T07:21:47.745Z,100950.77
2018-01-29T07:24:15.211Z,100947.88
2018-01-29T07:26:42.656Z,100955.42
2018-01-29T07:29:10.178Z,100946.63
2018-01-29T07:31:37.653Z,100949.87
2018-01-29T07:34:05.121Z,100947.94
2018-01-29T07:36:32.573Z,100941.98
2018-01-29T07:39:00.053Z,100937.97
2018-01-29T07:41:27.514Z,100933.84
2018-01-29T07:43:54.976Z,100929.82
2018-01-29T07:46:22.478Z,100921.05
2018-01-29T07:48:50.044Z,100913.30
2018-01-29T07:51:17.517Z,100908.31
2018-01-29T07:53:44.993Z,100914.14
2018-01-29T07:56:12.509Z,100912.02
2018-01-29T07:58:39.991Z,100903.84
2018-01-29T08:01:07.512Z,100904.70
2018-01-29T08:03:34.991Z,100905.64
2018-01-29T08:06:02.464Z,100890.83
2018-01-29T08:08:29.933Z,100906.80
2018-01-29T08:10:57.406Z,100906.79
2018-01-29T08:13:24.962Z,100908.48
2018-01-29T08:15:53.251Z,100901.53
2018-01-29T08:18:20.807Z,100905.97
2018-01-29T08:20:48.312Z,100899.71
2018-01-29T08:23:15.791Z,100903.38
2018-01-29T08:25:43.287Z,100900.36
2018-01-29T08:28:10.782Z,100903.33
2018-01-29T08:30:38.284Z,100903.25
2018-01-29T08:33:05.768Z,100903.77
2018-01-29T08:35:33.327Z,100918.80
2018-01-29T08:38:00.790Z,100908.84
2018-01-29T08:40:28.257Z,100915.37
2018-01-29T08:42:55.763Z,100919.30
2018-01-29T08:45:23.251Z,100918.17
2018-01-29T08:47:50.769Z,100914.55
2018-01-29T08:50:18.287Z,100913.81
2018-01-29T08:52:45.819Z,100920.41
2018-01-29T08:55:13.377Z,100904.80
2018-01-29T08:57:40.761Z,100914.16
2018-01-29T09:00:08.231Z,100899.40
2018-01-29T09:02:35.814Z,100900.84
2018-01-29T09:05:03.264Z,100897.82
2018-01-29T09:07:30.793Z,100903.83
2018-01-29T09:09:58.317Z,100891.37
2018-01-29T09:12:25.881Z,100898.63
2018-01-29T09:14:53.473Z,100879.08
2018-01-29T09:17:20.968Z,100880.02
2018-01-29T09:19:48.505Z,100876.40
2018-01-29T09:22:16.014Z,100881.01
2018-01-29T09:24:43.481Z,100879.69
2018-01-29T09:27:10.950Z,100879.45
2018-01-29T09:29:38.462Z,100881.03
2018-01-29T09:32:05.944Z,100885.05
2018-01-29T09:34:33.457Z,100895.44
2018-01-29T09:37:00.926Z,100887.95
2018-01-29T09:39:28.418Z,100898.13
2018-01-29T09:41:55.870Z,100886.31
2018-01-29T09:44:23.424Z,100887.11
2018-01-29T09:46:50.900Z,100887.39
2018-01-29T09:49:18.390Z,100880.23
2018-01-29T09:51:45.869Z,100882.52
2018-01-29T09:54:13.341Z,100884.80
2018-01-29T09:56:40.819Z,100870.99
2018-01-29T09:59:08.290Z,100864.94
2018-01-29T10:01:35.821Z,100868.16
2018-01-29T10:04:03.381Z,100886.83
2018-01-29T10:06:30.950Z,100880.08
2018-01-29T10:08:58.405Z,100876.22
2018-01-29T10:11:25.866Z,100880.09
2018-01-29T10:13:53.318Z,100879.67
2018-01-29T10:16:20.781Z,100874.00
2018-01-29T10:18:48.239Z,100872.26
2018-01-29T10:21:15.722Z,100872.03
2018-01-29T10:23:43.194Z,100871.78
2018-01-29T10:26:10.644Z,100870.03
2018-01-29T10:28:38.131Z,100871.63
2018-01-29T10:31:05.607Z,100871.39
2018-01-29T10:33:33.129Z,100852.48
2018-01-29T10:36:00.624Z,100862.32
2018-01-29T10:38:28.174Z,100853.63
2018-01-29T10:40:55.649Z,100850.80
2018-01-29T10:43:23.107Z,100842.49
2018-01-29T10:45:50.576Z,100850.55
2018-01-29T10:48:18.185Z,100834.04
2018-01-29T10:50:45.677Z,100837.13
2018-01-29T10:53:13.135Z,100832.16
2018-01-29T10:55:40.603Z,100840.50
2018-01-29T10:58:08.049Z,100832.55
2018-01-29T11:00:41.244Z,100824.36
2018-01-29T11:03:08.709Z,100823.96
2018-01-29T11:05:36.184Z,100817.65
2018-01-29T11:08:03.635Z,100814.17
2018-01-29T11:10:31.097Z,100804.66
2018-01-29T11:12:58.593Z,100801.95
2018-01-29T11:15:26.091Z,100805.46
2018-01-29T11:17:53.581Z,100794.58
2018-01-29T11:20:21.070Z,100789.36
2018-01-29T11:22:48.609Z,100784.78
2018-01-29T11:25:16.059Z,100786.80
2018-01-29T11:27:43.525Z,100783.05
2018-01-29T11:30:10.996Z,100781.42
2018-01-29T11:32:38.463Z,100774.44
2018-01-29T11:35:05.918Z,100769.88
2018-01-29T11:37:33.379Z,100770.82
2018-01-29T11:40:00.829Z,100757.81
2018-01-29T11:42:28.301Z,100763.58
2018-01-29T11:44:55.825Z,100769.61
2018-01-29T11:47:23.295Z,100767.73
2018-01-29T11:49:50.761Z,100756.06
2018-01-29T11:52:18.321Z,100764.12
2018-01-29T11:54:45.777Z,100760.37
2018-01-29T11:57:13.271Z,100747.08
2018-01-29T11:59:40.753Z,100742.39
2018-01-29T12:02:08.226Z,100728.70
2018-01-29T12:04:35.670Z,100723.31
2018-01-29T12:07:03.144Z,100724.63
2018-01-29T12:09:30.604Z,100725.17
2018-01-29T12:11:58.081Z,100720.49
2018-01-29T12:14:25.543Z,100721.02
2018-01-29T12:16:53.008Z,100718.35
2018-01-29T12:19:20.523Z,100713.12
2018-01-29T12:21:47.954Z,100712.05
2018-01-29T12:24:15.409Z,100705.59
2018-01-29T12:26:42.861Z,100709.62
2018-01-29T12:29:10.348Z,100686.28
2018-01-29T12:31:37.801Z,100692.86
2018-01-29T12:34:05.277Z,100690.82
2018-01-29T12:36:32.737Z,100681.70
2018-01-29T12:39:00.219Z,100679.42
2018-01-29T12:41:27.679Z,100672.14
2018-01-29T12:43:55.145Z,100657.12
2018-01-29T12:46:22.618Z,100663.16
2018-01-29T12:48:50.074Z,100654.57
2018-01-29T12:51:17.541Z,100657.78
2018-01-29T12:53:45.028Z,100655.49
2018-01-29T12:56:12.501Z,100654.81
2018-01-29T12:58:39.948Z,100657.78
2018-01-29T13:01:07.468Z,100624.92
2018-01-29T13:03:34.996Z,100633.87
2018-01-29T13:06:02.461Z,100629.28
2018-01-29T13:08:29.966Z,100636.13
2018-01-29T13:10:57.487Z,100632.48
2018-01-29T13:13:24.949Z,100622.33
2018-01-29T13:15:52.450Z,100622.73
2018-01-29T13:18:19.905Z,100622.60
2018-01-29T13:20:47.352Z,100615.49
2018-01-29T13:23:14.814Z,100614.52
2018-01-29T13:25:42.258Z,100606.75
2018-01-29T13:28:09.792Z,100606.47
2018-01-29T13:30:37.280Z,100594.91
2018-01-29T13:33:04.751Z,100600.44
2018-01-29T13:35:32.298Z,100598.28
2018-01-29T13:37:59.861Z,100598.42
2018-01-29T13:40:27.321Z,100592.12
2018-01-29T13:42:54.794Z,100584.33
2018-01-29T13:45:22.249Z,100589.53
2018-01-29T13:47:49.728Z,100576.00
2018-01-29T13:50:17.190Z,100580.45
2018-01-29T13:52:44.667Z,100582.06
2018-01-29T13:55:12.135Z,100580.04
2018-01-29T13:57:39.597Z,100572.17
2018-01-29T14:00:07.108Z,100568.94
2018-01-29T14:02:34.566Z,100568.55
2018-01-29T14:05:02.046Z,100557.84
2018-01-29T14:07:29.520Z,100549.77
2018-01-29T14:09:57.002Z,100544.72
2018-01-29T14:12:24.548Z,100541.53
2018-01-29T14:14:52.120Z,100551.88
2018-01-29T14:17:19.581Z,100527.84
2018-01-29T14:19:47.048Z,100550.92
2018-01-29T14:22:14.543Z,100525.14
2018-01-29T14:24:42.213Z,100523.64
2018-01-29T14:27:09.784Z,100528.25
2018-01-29T14:29:37.253Z,100532.41
2018-01-29T14:32:04.738Z,100526.88
2018-01-29T14:34:32.188Z,100534.42
2018-01-29T14:36:59.686Z,100518.09
2018-01-29T14:39:27.135Z,100514.17
2018-01-29T14:41:54.608Z,100513.39
2018-01-29T14:44:22.082Z,100516.44
2018-01-29T14:46:49.654Z,100504.25
2018-01-29T14:49:17.111Z,100507.95
2018-01-29T14:51:44.600Z,100498.73
2018-01-29T14:54:12.054Z,100495.13
2018-01-29T14:56:39.516Z,100509.61
2018-01-29T14:59:06.970Z,100491.63
2018-01-29T15:01:34.430Z,100497.53
2018-01-29T15:04:01.879Z,100494.77
2018-01-29T15:06:29.360Z,100504.03
2018-01-29T15:08:56.864Z,100497.44
2018-01-29T15:11:24.312Z,100506.73
2018-01-29T15:13:51.778Z,100507.67
2018-01-29T15:16:19.254Z,100494.40
2018-01-29T15:18:46.761Z,100497.34
2018-01-29T15:21:14.230Z,100486.62
2018-01-29T15:23:41.714Z,100483.66
2018-01-29T15:26:09.179Z,100480.58
2018-01-29T15:28:36.652Z,100483.00
2018-01-29T15:31:04.114Z,100479.82
2018-01-29T15:33:31.569Z,100472.72
2018-01-29T15:35:59.060Z,100474.61
2018-01-29T15:38:26.629Z,100470.58
2018-01-29T15:40:54.152Z,100475.56
2018-01-29T15:43:21.599Z,100480.12
2018-01-29T15:45:49.073Z,100481.20
2018-01-29T15:48:16.532Z,100468.88
2018-01-29T15:50:44.079Z,100468.07
2018-01-29T15:53:11.561Z,100469.97
2018-01-29T15:55:39.129Z,100474.65
2018-01-29T15:58:06.718Z,100475.30
2018-01-29T16:00:34.201Z,100473.58
2018-01-29T16:03:01.653Z,100471.70
2018-01-29T16:05:29.160Z,100467.44
2018-01-29T16:07:56.612Z,100464.23
2018-01-29T16:10:24.169Z,100464.85
2018-01-29T16:12:51.636Z,100464.75
2018-01-29T16:15:19.107Z,100454.14
2018-01-29T16:17:46.582Z,100455.38
2018-01-29T16:20:14.057Z,100453.64
2018-01-29T16:22:41.522Z,100451.75
2018-01-29T16:25:09.009Z,100454.44
2018-01-29T16:27:36.542Z,100450.31
2018-01-29T16:30:04.047Z,100448.83
2018-01-29T16:32:31.525Z,100441.84
2018-01-29T16:34:58.994Z,100447.09
2018-01-29T16:37:26.549Z,100454.75
2018-01-29T16:39:54.131Z,100443.47
2018-01-29T16:42:21.626Z,100446.03
2018-01-29T16:44:49.092Z,100442.55
2018-01-29T16:47:16.641Z,100435.45
2018-01-29T16:49:44.257Z,100440.81
2018-01-29T16:52:11.722Z,100446.31
2018-01-29T16:54:39.196Z,100437.07
2018-01-29T16:57:06.713Z,100438.28
2018-01-29T16:59:34.161Z,100434.94
2018-01-29T17:02:01.635Z,100432.12
2018-01-29T17:04:29.117Z,100431.18
2018-01-29T17:06:56.585Z,100439.22
2018-01-29T17:09:24.058Z,100435.86
2018-01-29T17:11:51.576Z,100427.70
2018-01-29T17:14:19.117Z,100432.93
2018-01-29T17:16:46.595Z,100424.48
2018-01-29T17:19:14.054Z,100425.95
2018-01-29T17:21:41.513Z,100431.84
2018-01-29T17:24:09.020Z,100411.34
2018-01-29T17:26:36.593Z,100422.48
2018-01-29T17:29:04.148Z,100405.08
2018-01-29T17:31:31.725Z,100406.15
2018-01-29T17:33:59.218Z,100404.80
2018-01-29T17:36:26.676Z,100395.95
2018-01-29T17:38:54.130Z,100404.40
2018-01-29T17:41:21.634Z,100403.34
2018-01-29T17:43:49.188Z,100382.41
2018-01-29T17:46:16.648Z,100389.37
2018-01-29T17:48:44.174Z,100386.30
2018-01-29T17:51:11.686Z,100389.25
2018-01-29T17:53:39.199Z,100370.61
2018-01-29T17:56:06.785Z,100384.31
2018-01-29T17:58:34.364Z,100381.20
2018-01-29T18:01:01.933Z,100377.31
2018-01-29T18:03:29.448Z,100370.90
2018-01-29T18:05:56.922Z,100379.21
2018-01-29T18:08:24.432Z,100398.52
2018-01-29T18:10:51.944Z,100372.52
2018-01-29T18:13:19.419Z,100374.52
2018-01-29T18:15:46.958Z,100354.41
2018-01-29T18:20:48.192Z,100347.45
2018-01-29T18:23:15.680Z,100341.98
2018-01-29T18:25:43.206Z,100329.27
2018-01-29T18:28:10.839Z,100333.68
2018-01-29T18:30:38.327Z,100338.08
2018-01-29T18:33:06.226Z,100327.75
2018-01-29T18:35:33.802Z,100332.45
2018-01-29T18:38:01.320Z,100326.16
2018-01-29T18:40:28.823Z,100313.70
2018-01-29T18:42:56.336Z,100307.55
2018-01-29T18:45:23.786Z,100306.34
2018-01-29T18:47:51.261Z,100308.86
2018-01-29T18:50:18.759Z,100308.45
2018-01-29T18:52:46.294Z,100313.00
2018-01-29T18:55:13.860Z,100319.69
2018-01-29T18:57:41.409Z,100321.69
2018-01-29T19:00:08.902Z,100319.44
2018-01-29T19:02:37.012Z,100311.53
2018-01-29T19:05:04.480Z,100302.14
2018-01-29T19:07:32.034Z,100313.14
2018-01-29T19:09:59.570Z,100302.14
2018-01-29T19:12:27.033Z,100298.52
2018-01-29T19:14:54.647Z,100300.69
2018-01-29T19:17:22.140Z,100298.42
2018-01-29T19:19:49.607Z,100297.33
2018-01-29T19:22:17.116Z,100296.68
2018-01-29T19:24:44.590Z,100293.59
2018-01-29T19:27:12.109Z,100284.19
2018-01-29T19:29:39.656Z,100268.28
2018-01-29T19:32:07.288Z,100283.80
2018-01-29T19:34:34.804Z,100282.17
2018-01-29T19:37:02.505Z,100287.17
2018-01-29T19:39:30.009Z,100280.30
2018-01-29T19:41:57.571Z,100280.57
2018-01-29T19:44:25.086Z,100274.68
2018-01-29T19:46:52.553Z,100280.41
2018-01-29T19:49:20.061Z,100260.05
2018-01-29T19:51:47.543Z,100257.77
2018-01-29T19:54:15.049Z,100251.98
2018-01-29T19:56:42.590Z,100253.72
2018-01-29T19:59:10.161Z,100245.00
2018-01-29T20:01:37.678Z,100238.73
2018-01-29T20:04:05.840Z,100248.52
2018-01-29T20:06:33.699Z,100250.85
2018-01-29T20:09:01.181Z,100258.44
2018-01-29T20:11:28.637Z,100259.02
2018-01-29T20:13:56.144Z,100260.39
2018-01-29T20:16:23.644Z,100260.02
2018-01-29T20:18:51.269Z,100261.35
2018-01-29T20:21:18.840Z,100256.41
2018-01-29T20:23:46.379Z,100255.20
2018-01-29T20:26:13.838Z,100239.83
2018-01-29T20:28:41.409Z,100252.15
2018-01-29T20:31:08.880Z,100254.14
2018-01-29T20:33:36.407Z,100230.06
2018-01-29T20:36:03.960Z,100242.24
2018-01-29T20:38:31.508Z,100243.72
2018-01-29T20:40:59.044Z,100247.47
2018-01-29T20:43:26.578Z,100232.31
2018-01-29T20:45:54.040Z,100231.94
2018-01-29T20:48:21.510Z,100245.97
2018-01-29T20:50:49.023Z,100233.78
2018-01-29T20:53:16.477Z,100243.16
2018-01-29T20:55:43.968Z,100251.70
2018-01-29T20:58:11.532Z,100254.11
2018-01-29T21:00:39.079Z,100243.38
2018-01-29T21:03:06.652Z,100259.97
2018-01-29T21:05:34.169Z,100263.58
2018-01-29T21:08:01.702Z,100252.97
2018-01-29T21:10:29.271Z,100245.88
2018-01-29T21:12:56.736Z,100241.72
2018-01-29T21:15:24.254Z,100255.66
2018-01-29T21:17:51.753Z,100251.80
2018-01-29T21:20:19.276Z,100253.80
2018-01-29T21:22:46.771Z,100244.30
2018-01-29T21:25:14.294Z,100244.70
2018-01-29T21:27:41.811Z,100238.95
2018-01-29T21:30:09.411Z,100250.47
2018-01-29T21:32:36.900Z,100251.70
2018-01-29T21:35:04.477Z,100246.34
2018-01-29T21:37:31.971Z,100266.56
2018-01-29T21:39:59.483Z,100267.77
2018-01-29T21:42:26.930Z,100259.36
2018-01-29T21:44:54.403Z,100267.52
2018-01-29T21:47:21.915Z,100250.53
2018-01-29T21:49:49.421Z,100253.35
2018-01-29T21:52:16.929Z,100260.05
2018-01-29T21:54:44.424Z,100254.02
2018-01-29T21:57:13.744Z,100250.54
2018-01-29T21:59:41.256Z,100246.80
2018-01-29T22:02:08.819Z,100253.75
2018-01-29T22:04:36.448Z,100250.27
2018-01-29T22:07:03.967Z,100254.56
2018-01-29T22:09:31.465Z,100257.64
2018-01-29T22:11:58.938Z,100257.87
2018-01-29T22:14:26.462Z,100258.80
2018-01-29T22:16:53.979Z,100259.88
2018-01-29T22:19:21.473Z,100257.89
2018-01-29T22:21:49.068Z,100264.81
2018-01-29T22:24:16.567Z,100260.25
2018-01-29T22:26:44.031Z,100261.88
2018-01-29T22:29:11.501Z,100271.78
2018-01-29T22:31:39.032Z,100260.66
2018-01-29T22:34:06.666Z,100272.03
2018-01-29T22:36:34.168Z,100269.89
2018-01-29T22:39:01.632Z,100268.81
2018-01-29T22:41:29.095Z,100291.87
2018-01-29T22:43:56.707Z,100304.71
2018-01-29T22:46:24.245Z,100319.72
2018-01-29T22:48:51.693Z,100338.65
2018-01-29T22:51:19.203Z,100371.59
2018-01-29T22:53:46.690Z,100366.65
2018-01-29T22:56:14.156Z,100370.48
2018-01-29T22:58:41.634Z,100382.47
2018-01-29T23:01:09.102Z,100415.17
2018-01-29T23:03:36.641Z,100397.49
2018-01-29T23:06:04.097Z,100422.05
2018-01-29T23:08:31.536Z,100414.62
2018-01-29T23:10:59.034Z,100424.13
2018-01-29T23:13:26.866Z,100440.91
2018-01-29T23:15:54.338Z,100437.63
2018-01-29T23:18:21.887Z,100451.77
2018-01-29T23:20:49.325Z,100454.99
2018-01-29T23:23:16.817Z,100448.75
2018-01-29T23:25:44.304Z,100464.94
2018-01-29T23:28:11.761Z,100480.93
2018-01-29T23:30:39.216Z,100474.84
2018-01-29T23:33:06.770Z,100498.14
2018-01-29T23:35:34.233Z,100489.62
2018-01-29T23:38:01.700Z,100498.66
2018-01-29T23:40:29.155Z,100520.74
2018-01-29T23:42:56.633Z,100522.21
2018-01-29T23:45:24.097Z,100523.14
2018-01-29T23:47:51.578Z,100537.27
2018-01-29T23:50:19.062Z,100543.09
2018-01-29T23:52:46.546Z,100546.96
2018-01-29T23:55:13.983Z,100564.28
2018-01-29T23:57:41.444Z,100568.08
